sensor_id;sensor_type;location;lat;lon;timestamp;temperature;humidity
7159;DHT22;63175;52.374;13.132;2023-05-07T00:00:39;9.90;99.90
7159;DHT22;63175;52.374;13.132;2023-05-07T00:03:07;9.90;99.90
7159;DHT22;63175;52.374;13.132;2023-05-07T00:05:36;9.90;99.90
7159;DHT22;63175;52.374;13.132;2023-05-07T00:08:03;9.90;99.90
7159;DHT22;63175;52.374;13.132;2023-05-07T00:10:30;9.90;99.90
7159;DHT22;63175;52.374;13.132;2023-05-07T00:12:57;9.90;99.90
7159;DHT22;63175;52.374;13.132;2023-05-07T00:15:24;9.90;99.90
7159;DHT22;63175;52.374;13.132;2023-05-07T00:17:51;9.90;99.90
7159;DHT22;63175;52.374;13.132;2023-05-07T00:20:18;9.90;99.90
7159;DHT22;63175;52.374;13.132;2023-05-07T00:22:46;9.90;99.90
7159;DHT22;63175;52.374;13.132;2023-05-07T00:25:13;9.90;99.90
7159;DHT22;63175;52.374;13.132;2023-05-07T00:27:39;9.90;99.90
7159;DHT22;63175;52.374;13.132;2023-05-07T00:30:07;9.90;99.90
7159;DHT22;63175;52.374;13.132;2023-05-07T00:32:34;9.90;99.90
7159;DHT22;63175;52.374;13.132;2023-05-07T00:35:02;9.90;99.90
7159;DHT22;63175;52.374;13.132;2023-05-07T00:37:28;9.90;99.90
7159;DHT22;63175;52.374;13.132;2023-05-07T00:39:57;9.90;99.90
7159;DHT22;63175;52.374;13.132;2023-05-07T00:42:24;9.90;99.90
7159;DHT22;63175;52.374;13.132;2023-05-07T00:44:51;9.90;99.90
7159;DHT22;63175;52.374;13.132;2023-05-07T00:47:18;9.80;99.90
7159;DHT22;63175;52.374;13.132;2023-05-07T00:49:45;9.80;99.90
7159;DHT22;63175;52.374;13.132;2023-05-07T00:52:14;9.80;99.90
7159;DHT22;63175;52.374;13.132;2023-05-07T00:54:42;9.80;99.90
7159;DHT22;63175;52.374;13.132;2023-05-07T00:57:11;9.80;99.90
7159;DHT22;63175;52.374;13.132;2023-05-07T00:59:38;9.80;99.90
7159;DHT22;63175;52.374;13.132;2023-05-07T01:02:06;9.80;99.90
7159;DHT22;63175;52.374;13.132;2023-05-07T01:04:33;9.80;99.90
7159;DHT22;63175;52.374;13.132;2023-05-07T01:07:01;9.80;99.90
7159;DHT22;63175;52.374;13.132;2023-05-07T01:09:28;9.80;99.90
7159;DHT22;63175;52.374;13.132;2023-05-07T01:11:56;9.80;99.90
7159;DHT22;63175;52.374;13.132;2023-05-07T01:14:25;9.80;99.90
7159;DHT22;63175;52.374;13.132;2023-05-07T01:16:53;9.80;99.90
7159;DHT22;63175;52.374;13.132;2023-05-07T01:19:20;9.70;99.90
7159;DHT22;63175;52.374;13.132;2023-05-07T01:21:48;9.80;99.90
7159;DHT22;63175;52.374;13.132;2023-05-07T01:24:17;9.80;99.90
7159;DHT22;63175;52.374;13.132;2023-05-07T01:26:44;9.80;99.90
7159;DHT22;63175;52.374;13.132;2023-05-07T01:29:11;9.70;99.90
7159;DHT22;63175;52.374;13.132;2023-05-07T01:31:38;9.70;99.90
7159;DHT22;63175;52.374;13.132;2023-05-07T01:34:08;9.70;99.90
7159;DHT22;63175;52.374;13.132;2023-05-07T01:36:37;9.70;99.90
7159;DHT22;63175;52.374;13.132;2023-05-07T01:39:06;9.70;99.90
7159;DHT22;63175;52.374;13.132;2023-05-07T01:41:34;9.70;99.90
7159;DHT22;63175;52.374;13.132;2023-05-07T01:44:03;9.70;99.90
7159;DHT22;63175;52.374;13.132;2023-05-07T01:46:30;9.70;99.90
7159;DHT22;63175;52.374;13.132;2023-05-07T01:48:58;9.70;99.90
7159;DHT22;63175;52.374;13.132;2023-05-07T01:51:25;9.70;99.90
7159;DHT22;63175;52.374;13.132;2023-05-07T01:53:53;9.70;99.90
7159;DHT22;63175;52.374;13.132;2023-05-07T01:56:20;9.70;99.90
7159;DHT22;63175;52.374;13.132;2023-05-07T01:58:48;9.70;99.90
7159;DHT22;63175;52.374;13.132;2023-05-07T02:01:16;9.70;99.90
7159;DHT22;63175;52.374;13.132;2023-05-07T02:03:44;9.70;99.90
7159;DHT22;63175;52.374;13.132;2023-05-07T02:06:11;9.70;99.90
7159;DHT22;63175;52.374;13.132;2023-05-07T02:08:38;9.70;99.90
7159;DHT22;63175;52.374;13.132;2023-05-07T02:11:05;9.70;99.90
7159;DHT22;63175;52.374;13.132;2023-05-07T02:13:33;9.70;99.90
7159;DHT22;63175;52.374;13.132;2023-05-07T02:16:01;10.10;99.90
7159;DHT22;63175;52.374;13.132;2023-05-07T02:18:28;9.70;99.90
7159;DHT22;63175;52.374;13.132;2023-05-07T02:20:55;9.70;99.90
7159;DHT22;63175;52.374;13.132;2023-05-07T02:23:22;9.70;99.90
7159;DHT22;63175;52.374;13.132;2023-05-07T02:25:49;9.70;99.90
7159;DHT22;63175;52.374;13.132;2023-05-07T02:28:16;9.80;99.90
7159;DHT22;63175;52.374;13.132;2023-05-07T02:30:42;9.80;99.90
7159;DHT22;63175;52.374;13.132;2023-05-07T02:33:11;9.80;99.90
7159;DHT22;63175;52.374;13.132;2023-05-07T02:35:37;9.80;99.90
7159;DHT22;63175;52.374;13.132;2023-05-07T02:38:04;9.80;99.90
7159;DHT22;63175;52.374;13.132;2023-05-07T02:40:31;9.70;99.90
7159;DHT22;63175;52.374;13.132;2023-05-07T02:43:04;9.70;99.90
7159;DHT22;63175;52.374;13.132;2023-05-07T02:45:31;9.70;99.90
7159;DHT22;63175;52.374;13.132;2023-05-07T02:47:58;9.70;99.90
7159;DHT22;63175;52.374;13.132;2023-05-07T02:50:26;9.70;99.90
7159;DHT22;63175;52.374;13.132;2023-05-07T03:06:23;9.70;99.90
7159;DHT22;63175;52.374;13.132;2023-05-07T03:08:50;9.70;99.90
7159;DHT22;63175;52.374;13.132;2023-05-07T03:11:17;9.70;99.90
7159;DHT22;63175;52.374;13.132;2023-05-07T03:13:44;9.60;99.90
7159;DHT22;63175;52.374;13.132;2023-05-07T03:16:11;9.60;99.90
7159;DHT22;63175;52.374;13.132;2023-05-07T03:18:37;9.60;99.90
7159;DHT22;63175;52.374;13.132;2023-05-07T03:21:04;9.60;99.90
7159;DHT22;63175;52.374;13.132;2023-05-07T03:23:32;9.60;99.90
7159;DHT22;63175;52.374;13.132;2023-05-07T03:25:59;9.50;99.90
7159;DHT22;63175;52.374;13.132;2023-05-07T03:28:26;9.60;99.90
7159;DHT22;63175;52.374;13.132;2023-05-07T03:30:53;9.50;99.90
7159;DHT22;63175;52.374;13.132;2023-05-07T03:33:20;9.60;99.90
7159;DHT22;63175;52.374;13.132;2023-05-07T03:35:46;9.60;99.90
7159;DHT22;63175;52.374;13.132;2023-05-07T03:38:13;9.60;99.90
7159;DHT22;63175;52.374;13.132;2023-05-07T03:40:42;9.60;99.90
7159;DHT22;63175;52.374;13.132;2023-05-07T03:43:08;9.60;99.90
7159;DHT22;63175;52.374;13.132;2023-05-07T03:45:35;9.60;99.90
7159;DHT22;63175;52.374;13.132;2023-05-07T03:48:02;9.60;99.90
7159;DHT22;63175;52.374;13.132;2023-05-07T03:50:29;9.60;99.90
7159;DHT22;63175;52.374;13.132;2023-05-07T03:52:56;9.60;99.90
7159;DHT22;63175;52.374;13.132;2023-05-07T03:55:23;9.60;99.90
7159;DHT22;63175;52.374;13.132;2023-05-07T03:57:52;9.60;99.90
7159;DHT22;63175;52.374;13.132;2023-05-07T04:00:18;9.60;99.90
7159;DHT22;63175;52.374;13.132;2023-05-07T04:02:47;9.50;99.90
7159;DHT22;63175;52.374;13.132;2023-05-07T04:05:14;9.50;99.90
7159;DHT22;63175;52.374;13.132;2023-05-07T04:07:41;9.50;99.90
7159;DHT22;63175;52.374;13.132;2023-05-07T04:10:08;9.50;99.90
7159;DHT22;63175;52.374;13.132;2023-05-07T04:12:35;9.50;99.90
7159;DHT22;63175;52.374;13.132;2023-05-07T04:15:04;9.50;99.90
7159;DHT22;63175;52.374;13.132;2023-05-07T04:17:31;9.50;99.90
7159;DHT22;63175;52.374;13.132;2023-05-07T04:19:58;9.50;99.90
7159;DHT22;63175;52.374;13.132;2023-05-07T04:22:25;9.20;99.90
7159;DHT22;63175;52.374;13.132;2023-05-07T04:24:51;9.60;99.90
7159;DHT22;63175;52.374;13.132;2023-05-07T04:27:18;9.60;99.90
7159;DHT22;63175;52.374;13.132;2023-05-07T04:29:45;9.60;99.90
7159;DHT22;63175;52.374;13.132;2023-05-07T04:32:14;9.60;99.90
7159;DHT22;63175;52.374;13.132;2023-05-07T04:34:41;9.60;99.90
7159;DHT22;63175;52.374;13.132;2023-05-07T04:37:08;9.50;99.90
7159;DHT22;63175;52.374;13.132;2023-05-07T04:39:34;9.50;99.90
7159;DHT22;63175;52.374;13.132;2023-05-07T04:42:01;9.50;99.90
7159;DHT22;63175;52.374;13.132;2023-05-07T04:44:28;9.50;99.90
7159;DHT22;63175;52.374;13.132;2023-05-07T04:46:56;9.50;99.90
7159;DHT22;63175;52.374;13.132;2023-05-07T04:49:24;9.50;99.90
7159;DHT22;63175;52.374;13.132;2023-05-07T04:51:51;9.50;99.90
7159;DHT22;63175;52.374;13.132;2023-05-07T04:54:18;9.50;99.90
7159;DHT22;63175;52.374;13.132;2023-05-07T04:56:45;9.50;99.90
7159;DHT22;63175;52.374;13.132;2023-05-07T04:59:12;9.50;99.90
7159;DHT22;63175;52.374;13.132;2023-05-07T05:01:38;9.50;99.90
7159;DHT22;63175;52.374;13.132;2023-05-07T05:04:06;9.50;99.90
7159;DHT22;63175;52.374;13.132;2023-05-07T05:06:34;9.50;99.90
7159;DHT22;63175;52.374;13.132;2023-05-07T05:09:01;9.40;99.90
7159;DHT22;63175;52.374;13.132;2023-05-07T05:11:28;9.50;99.90
7159;DHT22;63175;52.374;13.132;2023-05-07T05:13:54;9.50;99.90
7159;DHT22;63175;52.374;13.132;2023-05-07T05:16:21;9.60;99.90
7159;DHT22;63175;52.374;13.132;2023-05-07T05:18:48;9.60;99.90
7159;DHT22;63175;52.374;13.132;2023-05-07T05:21:16;9.60;99.90
7159;DHT22;63175;52.374;13.132;2023-05-07T05:23:45;9.60;99.90
7159;DHT22;63175;52.374;13.132;2023-05-07T05:26:11;9.70;99.90
7159;DHT22;63175;52.374;13.132;2023-05-07T05:28:38;9.70;99.90
7159;DHT22;63175;52.374;13.132;2023-05-07T05:31:05;9.70;99.90
7159;DHT22;63175;52.374;13.132;2023-05-07T05:33:32;9.80;99.90
7159;DHT22;63175;52.374;13.132;2023-05-07T05:35:59;9.80;99.90
7159;DHT22;63175;52.374;13.132;2023-05-07T05:38:26;9.80;99.90
7159;DHT22;63175;52.374;13.132;2023-05-07T05:40:54;9.80;99.90
7159;DHT22;63175;52.374;13.132;2023-05-07T05:43:21;9.90;99.90
7159;DHT22;63175;52.374;13.132;2023-05-07T05:45:48;9.90;99.90
7159;DHT22;63175;52.374;13.132;2023-05-07T05:48:15;9.90;99.90
7159;DHT22;63175;52.374;13.132;2023-05-07T05:50:42;9.90;99.90
7159;DHT22;63175;52.374;13.132;2023-05-07T05:53:09;9.90;99.90
7159;DHT22;63175;52.374;13.132;2023-05-07T05:55:36;9.90;99.90
7159;DHT22;63175;52.374;13.132;2023-05-07T05:58:04;10.00;99.90
7159;DHT22;63175;52.374;13.132;2023-05-07T06:00:31;10.00;99.90
7159;DHT22;63175;52.374;13.132;2023-05-07T06:02:58;10.00;99.90
7159;DHT22;63175;52.374;13.132;2023-05-07T06:05:25;10.00;99.90
7159;DHT22;63175;52.374;13.132;2023-05-07T06:07:52;10.10;99.90
7159;DHT22;63175;52.374;13.132;2023-05-07T06:10:18;10.10;99.90
7159;DHT22;63175;52.374;13.132;2023-05-07T06:12:45;10.10;99.90
7159;DHT22;63175;52.374;13.132;2023-05-07T06:15:13;10.20;99.90
7159;DHT22;63175;52.374;13.132;2023-05-07T06:17:40;10.20;99.90
7159;DHT22;63175;52.374;13.132;2023-05-07T06:20:08;10.30;99.90
7159;DHT22;63175;52.374;13.132;2023-05-07T06:22:35;10.50;99.90
7159;DHT22;63175;52.374;13.132;2023-05-07T06:25:02;10.60;99.90
7159;DHT22;63175;52.374;13.132;2023-05-07T06:27:29;10.80;99.90
7159;DHT22;63175;52.374;13.132;2023-05-07T06:29:56;10.90;99.90
7159;DHT22;63175;52.374;13.132;2023-05-07T06:32:24;11.10;99.90
7159;DHT22;63175;52.374;13.132;2023-05-07T06:34:51;11.20;99.90
7159;DHT22;63175;52.374;13.132;2023-05-07T06:37:18;11.30;99.90
7159;DHT22;63175;52.374;13.132;2023-05-07T06:39:44;11.50;99.90
7159;DHT22;63175;52.374;13.132;2023-05-07T06:42:11;11.70;99.90
7159;DHT22;63175;52.374;13.132;2023-05-07T06:44:38;11.90;99.90
7159;DHT22;63175;52.374;13.132;2023-05-07T06:47:05;12.00;99.90
7159;DHT22;63175;52.374;13.132;2023-05-07T06:49:33;12.10;99.90
7159;DHT22;63175;52.374;13.132;2023-05-07T06:52:00;12.10;99.90
7159;DHT22;63175;52.374;13.132;2023-05-07T06:54:27;12.10;99.90
7159;DHT22;63175;52.374;13.132;2023-05-07T06:56:54;12.30;99.90
7159;DHT22;63175;52.374;13.132;2023-05-07T06:59:20;12.50;99.90
7159;DHT22;63175;52.374;13.132;2023-05-07T07:01:47;12.60;99.90
7159;DHT22;63175;52.374;13.132;2023-05-07T07:04:14;12.80;99.90
7159;DHT22;63175;52.374;13.132;2023-05-07T07:06:42;13.00;99.90
7159;DHT22;63175;52.374;13.132;2023-05-07T07:09:09;13.00;99.90
7159;DHT22;63175;52.374;13.132;2023-05-07T07:11:36;13.00;99.90
7159;DHT22;63175;52.374;13.132;2023-05-07T07:14:03;12.90;99.90
7159;DHT22;63175;52.374;13.132;2023-05-07T07:16:30;12.80;99.90
7159;DHT22;63175;52.374;13.132;2023-05-07T07:18:57;12.80;99.90
7159;DHT22;63175;52.374;13.132;2023-05-07T07:21:24;12.70;99.90
7159;DHT22;63175;52.374;13.132;2023-05-07T07:23:52;12.50;99.90
7159;DHT22;63175;52.374;13.132;2023-05-07T07:26:19;12.40;99.90
7159;DHT22;63175;52.374;13.132;2023-05-07T07:28:46;12.30;99.90
7159;DHT22;63175;52.374;13.132;2023-05-07T07:31:13;12.30;99.90
7159;DHT22;63175;52.374;13.132;2023-05-07T07:33:40;12.40;99.90
7159;DHT22;63175;52.374;13.132;2023-05-07T07:36:07;12.50;99.90
7159;DHT22;63175;52.374;13.132;2023-05-07T07:38:34;12.40;99.90
7159;DHT22;63175;52.374;13.132;2023-05-07T07:41:03;12.30;99.90
7159;DHT22;63175;52.374;13.132;2023-05-07T07:43:30;12.10;99.90
7159;DHT22;63175;52.374;13.132;2023-05-07T07:45:56;12.10;99.90
7159;DHT22;63175;52.374;13.132;2023-05-07T07:48:23;12.20;99.90
7159;DHT22;63175;52.374;13.132;2023-05-07T07:50:50;12.30;99.90
7159;DHT22;63175;52.374;13.132;2023-05-07T07:53:18;12.50;99.90
7159;DHT22;63175;52.374;13.132;2023-05-07T07:55:45;12.70;99.90
7159;DHT22;63175;52.374;13.132;2023-05-07T07:58:13;12.80;99.90
7159;DHT22;63175;52.374;13.132;2023-05-07T08:00:40;12.90;99.90
7159;DHT22;63175;52.374;13.132;2023-05-07T08:03:09;13.00;99.90
7159;DHT22;63175;52.374;13.132;2023-05-07T08:05:36;13.00;99.90
7159;DHT22;63175;52.374;13.132;2023-05-07T08:08:04;13.10;99.90
7159;DHT22;63175;52.374;13.132;2023-05-07T08:10:31;13.20;99.90
7159;DHT22;63175;52.374;13.132;2023-05-07T08:13:00;13.60;99.90
7159;DHT22;63175;52.374;13.132;2023-05-07T08:15:30;13.90;99.90
7159;DHT22;63175;52.374;13.132;2023-05-07T08:17:58;14.10;99.90
7159;DHT22;63175;52.374;13.132;2023-05-07T08:20:25;14.10;99.90
7159;DHT22;63175;52.374;13.132;2023-05-07T08:22:52;13.90;99.90
7159;DHT22;63175;52.374;13.132;2023-05-07T08:25:19;13.90;99.90
7159;DHT22;63175;52.374;13.132;2023-05-07T08:27:46;13.90;99.90
7159;DHT22;63175;52.374;13.132;2023-05-07T08:30:14;13.90;99.90
7159;DHT22;63175;52.374;13.132;2023-05-07T08:32:42;13.90;99.90
7159;DHT22;63175;52.374;13.132;2023-05-07T08:35:09;14.10;99.90
7159;DHT22;63175;52.374;13.132;2023-05-07T08:37:36;14.50;99.90
7159;DHT22;63175;52.374;13.132;2023-05-07T08:40:03;15.00;99.90
7159;DHT22;63175;52.374;13.132;2023-05-07T08:42:31;15.40;99.90
7159;DHT22;63175;52.374;13.132;2023-05-07T08:45:03;15.60;99.90
7159;DHT22;63175;52.374;13.132;2023-05-07T08:47:35;15.70;99.30
7159;DHT22;63175;52.374;13.132;2023-05-07T08:50:07;15.90;98.80
7159;DHT22;63175;52.374;13.132;2023-05-07T08:52:35;16.10;97.90
7159;DHT22;63175;52.374;13.132;2023-05-07T08:55:03;16.40;97.10
7159;DHT22;63175;52.374;13.132;2023-05-07T08:57:30;16.60;95.70
7159;DHT22;63175;52.374;13.132;2023-05-07T08:59:57;16.60;95.00
7159;DHT22;63175;52.374;13.132;2023-05-07T09:02:23;16.90;94.40
7159;DHT22;63175;52.374;13.132;2023-05-07T09:04:50;17.10;93.20
7159;DHT22;63175;52.374;13.132;2023-05-07T09:07:20;17.20;92.60
7159;DHT22;63175;52.374;13.132;2023-05-07T09:09:47;17.20;91.60
7159;DHT22;63175;52.374;13.132;2023-05-07T09:12:13;17.00;91.40
7159;DHT22;63175;52.374;13.132;2023-05-07T09:14:40;16.80;91.50
7159;DHT22;63175;52.374;13.132;2023-05-07T09:17:07;16.50;92.10
7159;DHT22;63175;52.374;13.132;2023-05-07T09:19:34;16.30;92.90
7159;DHT22;63175;52.374;13.132;2023-05-07T09:22:02;16.20;93.20
7159;DHT22;63175;52.374;13.132;2023-05-07T09:24:30;16.20;93.70
7159;DHT22;63175;52.374;13.132;2023-05-07T09:27:00;16.30;93.60
7159;DHT22;63175;52.374;13.132;2023-05-07T09:29:28;16.40;93.00
7159;DHT22;63175;52.374;13.132;2023-05-07T09:31:55;16.50;93.10
7159;DHT22;63175;52.374;13.132;2023-05-07T09:34:22;16.50;93.00
7159;DHT22;63175;52.374;13.132;2023-05-07T09:36:49;16.50;92.80
7159;DHT22;63175;52.374;13.132;2023-05-07T09:39:16;16.50;92.80
7159;DHT22;63175;52.374;13.132;2023-05-07T09:41:45;16.80;93.30
7159;DHT22;63175;52.374;13.132;2023-05-07T09:44:12;17.30;92.30
7159;DHT22;63175;52.374;13.132;2023-05-07T09:46:43;17.40;91.40
7159;DHT22;63175;52.374;13.132;2023-05-07T09:49:16;17.20;91.10
7159;DHT22;63175;52.374;13.132;2023-05-07T09:51:49;17.10;91.20
7159;DHT22;63175;52.374;13.132;2023-05-07T09:54:16;17.10;91.30
7159;DHT22;63175;52.374;13.132;2023-05-07T09:56:45;17.00;91.10
7159;DHT22;63175;52.374;13.132;2023-05-07T09:59:13;17.00;91.10
7159;DHT22;63175;52.374;13.132;2023-05-07T10:01:41;17.40;90.30
7159;DHT22;63175;52.374;13.132;2023-05-07T10:04:09;17.40;90.00
7159;DHT22;63175;52.374;13.132;2023-05-07T10:06:37;17.40;89.00
7159;DHT22;63175;52.374;13.132;2023-05-07T10:09:04;17.30;88.90
7159;DHT22;63175;52.374;13.132;2023-05-07T10:11:32;17.30;89.20
7159;DHT22;63175;52.374;13.132;2023-05-07T10:14:01;17.20;88.60
7159;DHT22;63175;52.374;13.132;2023-05-07T10:16:31;16.90;87.40
7159;DHT22;63175;52.374;13.132;2023-05-07T10:19:02;16.80;87.30
7159;DHT22;63175;52.374;13.132;2023-05-07T10:21:29;16.80;88.00
7159;DHT22;63175;52.374;13.132;2023-05-07T10:23:58;16.80;87.10
7159;DHT22;63175;52.374;13.132;2023-05-07T10:26:29;16.70;87.00
7159;DHT22;63175;52.374;13.132;2023-05-07T10:28:59;16.80;88.40
7159;DHT22;63175;52.374;13.132;2023-05-07T10:34:34;17.80;82.80
7159;DHT22;63175;52.374;13.132;2023-05-07T10:37:03;18.30;81.60
7159;DHT22;63175;52.374;13.132;2023-05-07T10:39:30;18.80;80.60
7159;DHT22;63175;52.374;13.132;2023-05-07T10:42:07;19.20;75.40
7159;DHT22;63175;52.374;13.132;2023-05-07T10:44:34;19.60;74.20
7159;DHT22;63175;52.374;13.132;2023-05-07T10:47:08;19.70;71.80
7159;DHT22;63175;52.374;13.132;2023-05-07T10:49:36;19.50;70.30
7159;DHT22;63175;52.374;13.132;2023-05-07T10:52:14;19.00;70.90
7159;DHT22;63175;52.374;13.132;2023-05-07T10:54:41;18.30;72.80
7159;DHT22;63175;52.374;13.132;2023-05-07T10:57:33;18.00;74.90
7159;DHT22;63175;52.374;13.132;2023-05-07T11:00:02;17.90;75.60
7159;DHT22;63175;52.374;13.132;2023-05-07T11:03:08;18.00;75.50
7159;DHT22;63175;52.374;13.132;2023-05-07T11:05:35;18.20;75.80
7159;DHT22;63175;52.374;13.132;2023-05-07T11:08:03;18.30;75.10
7159;DHT22;63175;52.374;13.132;2023-05-07T11:10:55;18.40;74.90
7159;DHT22;63175;52.374;13.132;2023-05-07T11:13:43;18.70;75.20
7159;DHT22;63175;52.374;13.132;2023-05-07T11:16:17;18.90;72.00
7159;DHT22;63175;52.374;13.132;2023-05-07T11:18:50;18.90;71.10
7159;DHT22;63175;52.374;13.132;2023-05-07T11:21:33;18.80;71.30
7159;DHT22;63175;52.374;13.132;2023-05-07T11:24:01;18.90;72.70
7159;DHT22;63175;52.374;13.132;2023-05-07T11:26:29;19.30;72.50
7159;DHT22;63175;52.374;13.132;2023-05-07T11:28:57;19.60;69.20
7159;DHT22;63175;52.374;13.132;2023-05-07T11:31:27;19.40;68.30
7159;DHT22;63175;52.374;13.132;2023-05-07T11:33:57;19.20;68.10
7159;DHT22;63175;52.374;13.132;2023-05-07T11:36:24;19.10;68.10
7159;DHT22;63175;52.374;13.132;2023-05-07T11:38:52;19.30;67.80
7159;DHT22;63175;52.374;13.132;2023-05-07T11:41:19;19.40;67.80
7159;DHT22;63175;52.374;13.132;2023-05-07T11:43:58;19.30;66.90
7159;DHT22;63175;52.374;13.132;2023-05-07T11:46:27;19.20;66.90
7159;DHT22;63175;52.374;13.132;2023-05-07T11:48:55;19.20;67.40
7159;DHT22;63175;52.374;13.132;2023-05-07T11:51:24;19.30;67.30
7159;DHT22;63175;52.374;13.132;2023-05-07T11:53:51;19.30;66.20
7159;DHT22;63175;52.374;13.132;2023-05-07T11:56:19;19.20;66.10
7159;DHT22;63175;52.374;13.132;2023-05-07T11:58:47;19.00;66.20
7159;DHT22;63175;52.374;13.132;2023-05-07T12:01:15;18.70;66.80
7159;DHT22;63175;52.374;13.132;2023-05-07T12:03:44;18.40;68.30
7159;DHT22;63175;52.374;13.132;2023-05-07T12:06:14;18.20;69.20
7159;DHT22;63175;52.374;13.132;2023-05-07T12:08:42;18.30;69.60
7159;DHT22;63175;52.374;13.132;2023-05-07T12:11:12;18.40;69.10
7159;DHT22;63175;52.374;13.132;2023-05-07T12:13:41;18.40;68.80
7159;DHT22;63175;52.374;13.132;2023-05-07T12:16:08;18.30;69.40
7159;DHT22;63175;52.374;13.132;2023-05-07T12:18:35;18.30;69.80
7159;DHT22;63175;52.374;13.132;2023-05-07T12:21:04;18.30;68.50
7159;DHT22;63175;52.374;13.132;2023-05-07T12:23:33;18.20;67.70
7159;DHT22;63175;52.374;13.132;2023-05-07T12:26:01;18.00;68.00
7159;DHT22;63175;52.374;13.132;2023-05-07T12:28:29;17.80;69.00
7159;DHT22;63175;52.374;13.132;2023-05-07T12:30:57;17.70;69.20
7159;DHT22;63175;52.374;13.132;2023-05-07T12:33:25;17.50;70.00
7159;DHT22;63175;52.374;13.132;2023-05-07T12:35:55;17.60;70.70
7159;DHT22;63175;52.374;13.132;2023-05-07T12:38:22;17.70;71.00
7159;DHT22;63175;52.374;13.132;2023-05-07T12:40:54;17.80;69.40
7159;DHT22;63175;52.374;13.132;2023-05-07T12:43:24;17.90;69.30
7159;DHT22;63175;52.374;13.132;2023-05-07T12:45:53;17.90;69.30
7159;DHT22;63175;52.374;13.132;2023-05-07T12:48:21;17.90;68.30
7159;DHT22;63175;52.374;13.132;2023-05-07T12:50:49;18.10;67.80
7159;DHT22;63175;52.374;13.132;2023-05-07T12:53:17;18.20;66.20
7159;DHT22;63175;52.374;13.132;2023-05-07T12:55:47;18.20;65.80
7159;DHT22;63175;52.374;13.132;2023-05-07T12:58:16;18.20;65.20
7159;DHT22;63175;52.374;13.132;2023-05-07T13:00:44;18.10;64.80
7159;DHT22;63175;52.374;13.132;2023-05-07T13:03:11;18.20;65.80
7159;DHT22;63175;52.374;13.132;2023-05-07T13:05:39;18.20;65.70
7159;DHT22;63175;52.374;13.132;2023-05-07T13:08:06;18.20;65.40
7159;DHT22;63175;52.374;13.132;2023-05-07T13:10:35;18.30;65.90
7159;DHT22;63175;52.374;13.132;2023-05-07T13:13:02;18.70;66.00
7159;DHT22;63175;52.374;13.132;2023-05-07T13:15:31;18.90;65.80
7159;DHT22;63175;52.374;13.132;2023-05-07T13:17:58;19.10;63.80
7159;DHT22;63175;52.374;13.132;2023-05-07T13:20:25;19.00;63.60
7159;DHT22;63175;52.374;13.132;2023-05-07T13:22:51;18.90;64.20
7159;DHT22;63175;52.374;13.132;2023-05-07T13:25:18;18.90;64.40
7159;DHT22;63175;52.374;13.132;2023-05-07T13:27:45;18.70;62.60
7159;DHT22;63175;52.374;13.132;2023-05-07T13:30:12;18.60;63.40
7159;DHT22;63175;52.374;13.132;2023-05-07T13:32:40;18.80;63.60
7159;DHT22;63175;52.374;13.132;2023-05-07T13:35:07;19.30;63.10
7159;DHT22;63175;52.374;13.132;2023-05-07T13:40:02;20.20;59.40
7159;DHT22;63175;52.374;13.132;2023-05-07T13:42:30;20.70;58.80
7159;DHT22;63175;52.374;13.132;2023-05-07T13:44:57;21.20;57.10
7159;DHT22;63175;52.374;13.132;2023-05-07T13:47:24;21.50;55.20
7159;DHT22;63175;52.374;13.132;2023-05-07T13:49:52;21.30;54.80
7159;DHT22;63175;52.374;13.132;2023-05-07T13:52:19;21.30;54.80
7159;DHT22;63175;52.374;13.132;2023-05-07T13:54:46;21.40;54.80
7159;DHT22;63175;52.374;13.132;2023-05-07T13:57:13;21.80;54.30
7159;DHT22;63175;52.374;13.132;2023-05-07T13:59:40;22.10;54.10
7159;DHT22;63175;52.374;13.132;2023-05-07T14:02:07;22.50;53.20
7159;DHT22;63175;52.374;13.132;2023-05-07T14:04:34;22.50;52.30
7159;DHT22;63175;52.374;13.132;2023-05-07T14:07:03;22.10;52.90
7159;DHT22;63175;52.374;13.132;2023-05-07T14:09:29;21.50;53.20
7159;DHT22;63175;52.374;13.132;2023-05-07T14:11:56;21.20;54.10
7159;DHT22;63175;52.374;13.132;2023-05-07T14:14:23;21.20;54.40
7159;DHT22;63175;52.374;13.132;2023-05-07T14:16:50;21.20;54.70
7159;DHT22;63175;52.374;13.132;2023-05-07T14:19:17;21.20;53.90
7159;DHT22;63175;52.374;13.132;2023-05-07T14:21:44;20.90;53.60
7159;DHT22;63175;52.374;13.132;2023-05-07T14:24:12;20.90;53.90
7159;DHT22;63175;52.374;13.132;2023-05-07T14:26:39;20.80;53.90
7159;DHT22;63175;52.374;13.132;2023-05-07T14:29:06;20.70;54.30
7159;DHT22;63175;52.374;13.132;2023-05-07T14:31:32;20.40;54.60
7159;DHT22;63175;52.374;13.132;2023-05-07T14:33:59;20.00;55.40
7159;DHT22;63175;52.374;13.132;2023-05-07T14:36:26;19.90;56.30
7159;DHT22;63175;52.374;13.132;2023-05-07T14:38:53;19.90;56.60
7159;DHT22;63175;52.374;13.132;2023-05-07T14:41:22;20.10;55.60
7159;DHT22;63175;52.374;13.132;2023-05-07T14:43:49;20.20;55.80
7159;DHT22;63175;52.374;13.132;2023-05-07T14:46:16;20.10;55.70
7159;DHT22;63175;52.374;13.132;2023-05-07T14:48:44;20.10;55.90
7159;DHT22;63175;52.374;13.132;2023-05-07T14:51:11;20.20;55.60
7159;DHT22;63175;52.374;13.132;2023-05-07T14:53:38;20.10;55.50
7159;DHT22;63175;52.374;13.132;2023-05-07T14:56:06;20.10;55.80
7159;DHT22;63175;52.374;13.132;2023-05-07T14:58:34;20.00;55.70
7159;DHT22;63175;52.374;13.132;2023-05-07T15:01:01;19.80;55.80
7159;DHT22;63175;52.374;13.132;2023-05-07T15:03:28;19.70;56.50
7159;DHT22;63175;52.374;13.132;2023-05-07T15:05:55;19.70;56.10
7159;DHT22;63175;52.374;13.132;2023-05-07T15:08:22;19.70;56.20
7159;DHT22;63175;52.374;13.132;2023-05-07T15:10:49;19.80;56.60
7159;DHT22;63175;52.374;13.132;2023-05-07T15:13:16;20.00;56.50
7159;DHT22;63175;52.374;13.132;2023-05-07T15:15:44;20.10;56.30
7159;DHT22;63175;52.374;13.132;2023-05-07T15:18:11;20.10;56.40
7159;DHT22;63175;52.374;13.132;2023-05-07T15:20:38;19.80;56.80
7159;DHT22;63175;52.374;13.132;2023-05-07T15:23:06;19.60;56.80
7159;DHT22;63175;52.374;13.132;2023-05-07T15:25:35;19.10;56.80
7159;DHT22;63175;52.374;13.132;2023-05-07T15:28:02;18.90;57.70
7159;DHT22;63175;52.374;13.132;2023-05-07T15:30:29;18.70;58.40
7159;DHT22;63175;52.374;13.132;2023-05-07T15:32:57;18.70;58.90
7159;DHT22;63175;52.374;13.132;2023-05-07T15:35:24;18.70;59.40
7159;DHT22;63175;52.374;13.132;2023-05-07T15:37:51;18.50;59.70
7159;DHT22;63175;52.374;13.132;2023-05-07T15:40:19;18.30;60.10
7159;DHT22;63175;52.374;13.132;2023-05-07T15:42:46;18.00;60.40
7159;DHT22;63175;52.374;13.132;2023-05-07T15:45:13;17.80;61.30
7159;DHT22;63175;52.374;13.132;2023-05-07T15:47:40;17.60;61.80
7159;DHT22;63175;52.374;13.132;2023-05-07T15:50:09;17.60;62.60
7159;DHT22;63175;52.374;13.132;2023-05-07T15:52:37;17.60;62.80
7159;DHT22;63175;52.374;13.132;2023-05-07T15:55:06;17.70;62.80
7159;DHT22;63175;52.374;13.132;2023-05-07T15:57:33;17.60;63.10
7159;DHT22;63175;52.374;13.132;2023-05-07T16:00:01;17.50;62.80